Time;durP1;ratioP1;P1;durP2;ratioP2;P2;SDS_P1;SDS_P2;PMS_P1;PMS_P2;Temp;Humidity;BMP_temperature;BMP_pressure;BME280_temperature;BME280_humidity;BME280_pressure;Samples;Min_cycle;Max_cycle;Signal;HPM_P1;HPM_P2
2024/03/05 00:01:07;;;;;;;19.58;8.57;;;;;;;;;;5079393;28;20048;-59
2024/03/05 00:03:35;;;;;;;16.30;8.27;;;;;;;;;;5077911;28;20737;-58
2024/03/05 00:06:06;;;;;;;20.55;9.80;;;;;;;;;;5080579;28;20067;-59
2024/03/05 00:08:34;;;;;;;15.88;7.93;;;;;;;;;;5071030;28;20570;-59
2024/03/05 00:11:04;;;;;;;20.20;9.88;;;;;;;;;;5079094;28;20083;-59
2024/03/05 00:13:33;;;;;;;21.25;9.73;;;;;;;;;;5068354;28;20118;-62
2024/03/05 00:16:03;;;;;;;17.92;8.07;;;;;;;;;;5073390;28;20076;-59
2024/03/05 00:18:32;;;;;;;19.80;9.25;;;;;;;;;;5070030;28;20049;-59
2024/03/05 00:21:01;;;;;;;25.52;10.00;;;;;;;;;;5074157;28;20048;-61
2024/03/05 00:23:30;;;;;;;18.45;9.00;;;;;;;;;;5070166;28;20048;-61
2024/03/05 00:25:59;;;;;;;18.77;8.88;;;;;;;;;;5067764;28;20398;-58
2024/03/05 00:28:27;;;;;;;22.92;10.55;;;;;;;;;;5064923;28;20141;-58
2024/03/05 00:30:56;;;;;;;20.48;8.48;;;;;;;;;;5070158;28;20055;-61
2024/03/05 00:33:25;;;;;;;19.45;9.23;;;;;;;;;;5069204;28;20206;-59
2024/03/05 00:35:54;;;;;;;19.55;8.90;;;;;;;;;;5066695;28;20564;-58
2024/03/05 00:38:22;;;;;;;20.00;8.90;;;;;;;;;;5069894;28;20053;-58
2024/03/05 00:41:02;;;;;;;18.75;8.90;;;;;;;;;;5069140;28;20040;-59
2024/03/05 00:43:30;;;;;;;18.58;8.85;;;;;;;;;;5069203;28;20379;-58
2024/03/05 00:46:00;;;;;;;19.15;8.48;;;;;;;;;;5071295;28;20136;-60
2024/03/05 00:48:28;;;;;;;20.52;8.60;;;;;;;;;;5078006;28;20048;-59
2024/03/05 00:50:57;;;;;;;22.50;9.75;;;;;;;;;;5073901;28;20044;-58
2024/03/05 00:53:25;;;;;;;24.33;10.98;;;;;;;;;;5073515;28;20048;-58
2024/03/05 00:55:53;;;;;;;23.73;9.77;;;;;;;;;;5071910;28;20056;-58
2024/03/05 00:58:23;;;;;;;19.88;9.25;;;;;;;;;;5069351;28;20051;-58
2024/03/05 01:00:53;;;;;;;16.90;8.88;;;;;;;;;;5076877;28;20053;-60
2024/03/05 01:03:22;;;;;;;24.13;10.13;;;;;;;;;;5071168;28;20471;-58
2024/03/05 01:05:50;;;;;;;25.40;10.55;;;;;;;;;;5074563;28;20049;-58
2024/03/05 01:08:18;;;;;;;22.70;10.82;;;;;;;;;;5077025;28;20048;-59
2024/03/05 01:10:47;;;;;;;21.58;9.18;;;;;;;;;;5078872;28;20048;-60
2024/03/05 01:13:15;;;;;;;22.75;10.40;;;;;;;;;;5078797;28;20071;-59
2024/03/05 01:15:45;;;;;;;23.40;10.57;;;;;;;;;;5070847;28;20059;-58
2024/03/05 01:18:14;;;;;;;19.92;9.25;;;;;;;;;;5072338;28;20041;-59
2024/03/05 01:20:42;;;;;;;19.05;9.85;;;;;;;;;;5073864;28;20054;-60
2024/03/05 01:23:11;;;;;;;19.02;9.82;;;;;;;;;;5078427;28;20045;-59
2024/03/05 01:25:41;;;;;;;26.73;10.10;;;;;;;;;;5083056;28;20050;-59
2024/03/05 01:28:09;;;;;;;20.30;9.52;;;;;;;;;;5078129;28;20048;-60
2024/03/05 01:30:39;;;;;;;21.17;9.77;;;;;;;;;;5079722;28;20093;-59
2024/03/05 01:33:19;;;;;;;21.52;9.93;;;;;;;;;;5076580;28;20398;-59
2024/03/05 01:35:48;;;;;;;21.30;10.32;;;;;;;;;;5077252;28;20076;-59
2024/03/05 01:38:17;;;;;;;21.13;9.88;;;;;;;;;;5077730;28;20413;-58
2024/03/05 01:40:45;;;;;;;22.27;9.93;;;;;;;;;;5071247;28;20048;-60
2024/03/05 01:43:14;;;;;;;22.02;9.90;;;;;;;;;;5080029;28;20048;-59
2024/03/05 01:45:43;;;;;;;21.40;8.82;;;;;;;;;;5067481;28;20052;-58
2024/03/05 01:48:14;;;;;;;23.55;9.55;;;;;;;;;;5074717;28;20381;-59
2024/03/05 01:50:44;;;;;;;20.83;9.20;;;;;;;;;;5072770;28;20055;-60
2024/03/05 01:53:14;;;;;;;20.85;9.48;;;;;;;;;;5069542;28;20079;-60
2024/03/05 01:55:43;;;;;;;20.40;9.75;;;;;;;;;;5076750;28;20063;-60
2024/03/05 01:58:14;;;;;;;19.92;9.30;;;;;;;;;;5070412;28;20048;-59
2024/03/05 02:00:43;;;;;;;25.02;10.23;;;;;;;;;;5062433;28;20080;-60
2024/03/05 02:03:12;;;;;;;19.63;9.43;;;;;;;;;;5074970;28;20039;-58
2024/03/05 02:05:43;;;;;;;25.67;11.57;;;;;;;;;;5077550;28;20200;-59
2024/03/05 02:08:12;;;;;;;22.75;9.73;;;;;;;;;;5070902;28;20097;-59
2024/03/05 02:10:48;;;;;;;21.65;10.02;;;;;;;;;;5074802;28;20437;-58
2024/03/05 02:13:16;;;;;;;25.25;11.05;;;;;;;;;;5073751;28;20080;-59
2024/03/05 02:15:46;;;;;;;22.02;10.45;;;;;;;;;;5070485;28;20131;-58
2024/03/05 02:18:15;;;;;;;26.60;12.00;;;;;;;;;;5073669;28;20051;-59
2024/03/05 02:20:45;;;;;;;29.70;12.20;;;;;;;;;;5079372;28;20097;-59
2024/03/05 02:23:16;;;;;;;27.20;11.18;;;;;;;;;;5074480;28;20435;-59
2024/03/05 02:25:44;;;;;;;25.73;10.50;;;;;;;;;;5072498;28;20077;-60
2024/03/05 02:28:13;;;;;;;28.83;11.00;;;;;;;;;;5072405;28;20064;-58
2024/03/05 02:30:42;;;;;;;22.63;11.00;;;;;;;;;;5069410;28;20051;-59
2024/03/05 02:33:10;;;;;;;24.67;11.45;;;;;;;;;;5067702;28;20098;-59
2024/03/05 02:35:39;;;;;;;24.83;11.57;;;;;;;;;;5069257;28;20044;-60
2024/03/05 02:38:07;;;;;;;24.42;11.05;;;;;;;;;;5075292;28;20055;-60
2024/03/05 02:40:37;;;;;;;24.25;10.45;;;;;;;;;;5068675;28;20428;-58
2024/03/05 02:43:06;;;;;;;27.48;11.40;;;;;;;;;;5076880;28;20052;-58
2024/03/05 02:45:35;;;;;;;21.92;9.98;;;;;;;;;;5071956;28;20370;-59
2024/03/05 02:48:04;;;;;;;23.80;10.48;;;;;;;;;;5076336;28;20060;-60
2024/03/05 02:50:34;;;;;;;23.15;10.00;;;;;;;;;;5072334;28;20068;-60
2024/03/05 02:53:04;;;;;;;24.92;10.88;;;;;;;;;;5070063;28;20052;-60
2024/03/05 02:55:37;;;;;;;27.88;10.90;;;;;;;;;;5072770;28;20541;-59
2024/03/05 02:58:07;;;;;;;24.75;11.02;;;;;;;;;;5079889;28;20070;-59
2024/03/05 03:00:36;;;;;;;25.55;10.70;;;;;;;;;;5061421;28;20456;-60
2024/03/05 03:03:05;;;;;;;24.13;10.63;;;;;;;;;;5070062;28;20040;-59
2024/03/05 03:05:33;;;;;;;25.00;11.27;;;;;;;;;;5067229;28;20049;-60
2024/03/05 03:08:04;;;;;;;23.73;11.10;;;;;;;;;;5078245;28;20055;-59
2024/03/05 03:10:32;;;;;;;22.35;10.00;;;;;;;;;;5069794;28;20838;-60
2024/03/05 03:13:01;;;;;;;26.08;11.45;;;;;;;;;;5081694;28;20052;-59
2024/03/05 03:15:32;;;;;;;25.33;10.52;;;;;;;;;;5072218;28;20048;-59
2024/03/05 03:18:00;;;;;;;26.52;11.25;;;;;;;;;;5061737;28;20075;-57
2024/03/05 03:20:29;;;;;;;23.15;10.95;;;;;;;;;;5076772;28;20054;-59
2024/03/05 03:22:57;;;;;;;23.73;11.32;;;;;;;;;;5068485;28;20067;-60
2024/03/05 03:25:26;;;;;;;26.48;11.05;;;;;;;;;;5073811;28;20048;-60
2024/03/05 03:27:54;;;;;;;23.10;10.40;;;;;;;;;;5075722;28;20246;-59
2024/03/05 03:30:23;;;;;;;23.83;10.70;;;;;;;;;;5072929;28;20125;-58
2024/03/05 03:32:52;;;;;;;23.40;10.60;;;;;;;;;;5078588;28;20458;-58
2024/03/05 03:35:21;;;;;;;24.42;10.95;;;;;;;;;;5069910;28;20048;-61
2024/03/05 03:37:49;;;;;;;23.95;10.25;;;;;;;;;;5077698;28;20147;-58
2024/03/05 03:40:24;;;;;;;25.58;10.77;;;;;;;;;;5074564;28;20055;-59
2024/03/05 03:42:52;;;;;;;30.27;11.95;;;;;;;;;;5073366;28;20413;-58
2024/03/05 03:45:21;;;;;;;26.90;11.85;;;;;;;;;;5077596;28;20049;-58
2024/03/05 03:47:50;;;;;;;25.85;11.18;;;;;;;;;;5070475;28;20147;-59
2024/03/05 03:50:20;;;;;;;24.30;11.02;;;;;;;;;;5069475;28;20044;-60
2024/03/05 03:52:49;;;;;;;23.20;11.05;;;;;;;;;;5071715;28;20555;-58
2024/03/05 03:55:18;;;;;;;24.67;11.35;;;;;;;;;;5083337;28;20051;-58
2024/03/05 03:57:47;;;;;;;28.65;11.27;;;;;;;;;;5075929;28;20505;-59
2024/03/05 04:00:17;;;;;;;26.40;11.35;;;;;;;;;;5074690;28;20102;-59
2024/03/05 04:02:47;;;;;;;23.52;9.63;;;;;;;;;;5075416;28;20040;-59
2024/03/05 04:05:16;;;;;;;22.35;10.27;;;;;;;;;;5079845;28;20044;-58
2024/03/05 04:07:46;;;;;;;24.77;10.55;;;;;;;;;;5079722;28;20144;-58
2024/03/05 04:10:15;;;;;;;24.67;10.25;;;;;;;;;;5076134;28;20098;-60
2024/03/05 04:12:44;;;;;;;25.50;10.77;;;;;;;;;;5080184;28;20134;-58
2024/03/05 04:15:13;;;;;;;24.80;10.70;;;;;;;;;;5077517;28;20052;-58
2024/03/05 04:17:42;;;;;;;20.90;9.93;;;;;;;;;;5076476;28;20151;-58
2024/03/05 04:20:14;;;;;;;26.02;11.10;;;;;;;;;;5070592;28;20101;-58
2024/03/05 04:22:43;;;;;;;29.40;11.77;;;;;;;;;;5084102;28;20144;-58
2024/03/05 04:25:14;;;;;;;24.45;11.77;;;;;;;;;;5079935;28;20045;-59
2024/03/05 04:27:45;;;;;;;28.33;10.80;;;;;;;;;;5074610;28;20051;-60
2024/03/05 04:30:15;;;;;;;24.63;10.27;;;;;;;;;;5071322;28;20056;-59
2024/03/05 04:32:46;;;;;;;21.80;9.65;;;;;;;;;;5074413;28;20366;-58
2024/03/05 04:35:27;;;;;;;25.70;11.68;;;;;;;;;;5082862;28;20509;-61
2024/03/05 04:37:57;;;;;;;24.70;11.10;;;;;;;;;;5075260;28;20425;-59
2024/03/05 04:40:29;;;;;;;24.77;10.52;;;;;;;;;;5074502;28;20127;-59
2024/03/05 04:42:58;;;;;;;22.83;10.77;;;;;;;;;;5079056;28;20071;-58
2024/03/05 04:45:26;;;;;;;25.95;10.95;;;;;;;;;;5078439;28;20048;-58
2024/03/05 04:47:55;;;;;;;22.35;10.35;;;;;;;;;;5078783;28;20041;-60
2024/03/05 04:50:24;;;;;;;26.02;11.98;;;;;;;;;;5075214;28;20044;-60
2024/03/05 04:52:53;;;;;;;23.20;10.52;;;;;;;;;;5072672;28;20052;-58
2024/03/05 04:55:22;;;;;;;22.90;10.27;;;;;;;;;;5072774;28;20418;-58
2024/03/05 04:57:53;;;;;;;23.77;10.90;;;;;;;;;;5068491;28;20044;-59
2024/03/05 05:00:23;;;;;;;26.63;11.45;;;;;;;;;;5078707;28;20048;-60
2024/03/05 05:02:51;;;;;;;22.60;10.68;;;;;;;;;;5073565;28;20044;-60
2024/03/05 05:05:24;;;;;;;22.45;10.25;;;;;;;;;;5070222;28;20044;-59
2024/03/05 05:07:56;;;;;;;25.50;11.35;;;;;;;;;;5083606;28;20060;-59
2024/03/05 05:10:24;;;;;;;21.65;10.50;;;;;;;;;;5069728;28;20056;-60
2024/03/05 05:12:54;;;;;;;23.05;10.45;;;;;;;;;;5080497;28;20097;-61
2024/03/05 05:15:23;;;;;;;24.55;10.55;;;;;;;;;;5072826;28;20092;-62
2024/03/05 05:17:52;;;;;;;22.60;10.32;;;;;;;;;;5059112;28;20127;-60
2024/03/05 05:20:21;;;;;;;21.65;9.70;;;;;;;;;;5065320;28;20055;-59
2024/03/05 05:22:50;;;;;;;25.65;11.55;;;;;;;;;;5082613;28;20120;-60
2024/03/05 05:25:19;;;;;;;25.88;11.15;;;;;;;;;;5072943;28;20081;-60
2024/03/05 05:27:49;;;;;;;24.50;11.35;;;;;;;;;;5065416;28;20054;-59
2024/03/05 05:30:19;;;;;;;27.65;12.18;;;;;;;;;;5073885;28;20121;-58
2024/03/05 05:32:48;;;;;;;23.95;10.77;;;;;;;;;;5071146;28;20079;-58
2024/03/05 05:35:17;;;;;;;25.65;11.23;;;;;;;;;;5081213;28;20135;-59
2024/03/05 05:37:46;;;;;;;21.10;10.20;;;;;;;;;;5077504;28;20041;-59
2024/03/05 05:40:16;;;;;;;21.90;11.23;;;;;;;;;;5071308;28;20124;-60
2024/03/05 05:42:49;;;;;;;25.73;10.30;;;;;;;;;;5072394;28;20041;-59
2024/03/05 05:45:21;;;;;;;24.10;10.43;;;;;;;;;;5075251;28;20044;-59
2024/03/05 05:47:51;;;;;;;29.58;12.73;;;;;;;;;;5066014;28;20048;-60
2024/03/05 05:50:21;;;;;;;26.45;11.50;;;;;;;;;;5055737;28;20540;-60
2024/03/05 05:52:52;;;;;;;27.98;12.23;;;;;;;;;;5046666;28;20106;-61
2024/03/05 05:55:22;;;;;;;24.88;11.52;;;;;;;;;;5047321;28;20048;-60
2024/03/05 05:57:51;;;;;;;26.77;11.98;;;;;;;;;;5048327;28;20045;-60
2024/03/05 06:00:31;;;;;;;28.00;12.23;;;;;;;;;;5051574;28;20056;-59
2024/03/05 06:03:03;;;;;;;28.27;11.75;;;;;;;;;;5048513;28;20056;-59
2024/03/05 06:05:34;;;;;;;26.55;11.52;;;;;;;;;;5049026;28;20625;-59
2024/03/05 06:08:03;;;;;;;28.98;12.98;;;;;;;;;;5049021;28;20139;-59
2024/03/05 06:10:32;;;;;;;30.30;12.13;;;;;;;;;;5055027;28;20080;-61
2024/03/05 06:13:01;;;;;;;29.92;12.27;;;;;;;;;;5055518;28;20044;-59
2024/03/05 06:15:31;;;;;;;26.17;11.25;;;;;;;;;;5047441;28;20045;-59
2024/03/05 06:17:59;;;;;;;28.02;11.68;;;;;;;;;;5047227;28;20065;-59
2024/03/05 06:20:28;;;;;;;27.08;11.60;;;;;;;;;;5066917;28;20321;-57
2024/03/05 06:22:58;;;;;;;28.60;11.95;;;;;;;;;;5064066;28;21950;-61
2024/03/05 06:25:27;;;;;;;28.85;12.18;;;;;;;;;;5073892;28;20219;-61
2024/03/05 06:27:56;;;;;;;21.95;10.32;;;;;;;;;;5075412;28;20671;-59
2024/03/05 06:30:26;;;;;;;25.02;11.57;;;;;;;;;;5052811;28;20364;-59
2024/03/05 06:32:56;;;;;;;25.80;11.25;;;;;;;;;;5046911;28;20337;-58
2024/03/05 06:35:26;;;;;;;26.92;11.38;;;;;;;;;;5052803;28;20040;-59
2024/03/05 06:37:57;;;;;;;24.42;11.75;;;;;;;;;;5049874;28;20068;-59
2024/03/05 06:40:26;;;;;;;25.33;11.75;;;;;;;;;;5047711;28;20067;-59
2024/03/05 06:43:03;;;;;;;28.75;12.40;;;;;;;;;;5045702;28;20060;-59
2024/03/05 06:45:34;;;;;;;22.55;11.00;;;;;;;;;;5044396;28;20067;-58
2024/03/05 06:48:07;;;;;;;27.35;11.60;;;;;;;;;;5051315;28;20376;-60
2024/03/05 06:50:41;;;;;;;25.13;10.88;;;;;;;;;;5048579;28;20136;-62
2024/03/05 06:58:44;;;;;;;30.38;12.40;;;;;;;;;;5044554;28;20048;-60
2024/03/05 07:01:13;;;;;;;29.55;12.57;;;;;;;;;;5052263;28;20049;-59
2024/03/05 07:03:44;;;;;;;28.02;11.20;;;;;;;;;;5057328;28;20049;-59
2024/03/05 07:06:12;;;;;;;27.25;11.05;;;;;;;;;;5058441;28;20395;-60
2024/03/05 07:08:42;;;;;;;25.92;11.43;;;;;;;;;;5061099;28;20052;-60
2024/03/05 07:11:11;;;;;;;26.92;11.70;;;;;;;;;;5083636;28;20504;-61
2024/03/05 07:13:40;;;;;;;28.23;11.18;;;;;;;;;;5073426;28;20505;-58
2024/03/05 07:16:15;;;;;;;30.55;12.07;;;;;;;;;;5074184;28;20048;-62
2024/03/05 07:18:47;;;;;;;28.17;11.57;;;;;;;;;;5073325;28;20041;-61
2024/03/05 07:21:15;;;;;;;27.15;12.27;;;;;;;;;;5065580;28;20044;-61
2024/03/05 07:23:46;;;;;;;26.98;11.68;;;;;;;;;;5074200;28;20252;-60
2024/03/05 07:26:15;;;;;;;24.05;11.15;;;;;;;;;;5082379;28;20048;-59
2024/03/05 07:28:44;;;;;;;27.63;12.55;;;;;;;;;;5075139;28;20412;-59
2024/03/05 07:31:13;;;;;;;28.13;12.20;;;;;;;;;;5049549;28;20060;-60
2024/03/05 07:33:41;;;;;;;27.15;11.68;;;;;;;;;;5057958;28;20102;-61
2024/03/05 07:36:11;;;;;;;27.70;11.32;;;;;;;;;;5059508;28;20513;-61
2024/03/05 07:38:39;;;;;;;28.70;12.32;;;;;;;;;;5052017;28;20139;-62
2024/03/05 07:41:08;;;;;;;31.02;11.73;;;;;;;;;;5052055;28;20106;-60
2024/03/05 07:43:50;;;;;;;29.80;11.43;;;;;;;;;;5048292;28;20103;-59
2024/03/05 07:46:18;;;;;;;28.50;12.85;;;;;;;;;;5048921;28;20314;-59
2024/03/05 07:48:47;;;;;;;28.92;12.10;;;;;;;;;;5052138;28;20135;-59
2024/03/05 07:51:17;;;;;;;25.05;11.10;;;;;;;;;;5075781;28;20964;-60
2024/03/05 07:53:56;;;;;;;27.25;12.10;;;;;;;;;;5068508;28;20044;-59
2024/03/05 07:56:24;;;;;;;26.35;12.30;;;;;;;;;;5071748;28;20068;-62
2024/03/05 07:58:52;;;;;;;25.23;10.80;;;;;;;;;;5069599;28;20513;-62
2024/03/05 08:01:21;;;;;;;26.83;12.05;;;;;;;;;;5067145;28;20057;-58
2024/03/05 08:03:50;;;;;;;25.08;11.80;;;;;;;;;;5075642;28;20052;-60
2024/03/05 08:06:21;;;;;;;28.45;11.50;;;;;;;;;;5079231;28;20458;-61
2024/03/05 08:08:49;;;;;;;26.95;11.18;;;;;;;;;;5067084;28;20098;-61
2024/03/05 08:11:18;;;;;;;24.00;11.00;;;;;;;;;;5077275;28;20459;-60
2024/03/05 08:13:46;;;;;;;25.08;11.68;;;;;;;;;;5069626;28;20052;-59
2024/03/05 08:16:15;;;;;;;25.70;12.30;;;;;;;;;;5065260;28;20409;-59
2024/03/05 08:18:43;;;;;;;28.38;12.18;;;;;;;;;;5071981;28;20052;-59
2024/03/05 08:21:11;;;;;;;28.63;11.82;;;;;;;;;;5078296;28;20071;-60
2024/03/05 08:23:41;;;;;;;24.55;11.35;;;;;;;;;;5079584;28;20056;-61
2024/03/05 08:26:11;;;;;;;25.20;10.77;;;;;;;;;;5068303;28;20102;-60
2024/03/05 08:28:40;;;;;;;26.30;11.35;;;;;;;;;;5071508;28;20409;-59
2024/03/05 08:31:10;;;;;;;26.60;11.52;;;;;;;;;;5074074;28;20577;-60
2024/03/05 08:33:38;;;;;;;23.70;10.27;;;;;;;;;;5081301;28;20047;-61
2024/03/05 08:36:07;;;;;;;22.67;10.68;;;;;;;;;;5088433;28;20093;-61
2024/03/05 08:38:36;;;;;;;25.52;11.18;;;;;;;;;;5066120;28;20080;-59
2024/03/05 08:41:06;;;;;;;23.73;11.02;;;;;;;;;;5070912;28;20044;-59
2024/03/05 08:43:35;;;;;;;27.75;11.02;;;;;;;;;;5074431;28;20053;-60
2024/03/05 08:46:06;;;;;;;29.30;11.88;;;;;;;;;;5065017;28;20404;-60
2024/03/05 08:48:34;;;;;;;25.52;11.07;;;;;;;;;;5066239;28;20041;-61
2024/03/05 08:51:02;;;;;;;22.40;10.68;;;;;;;;;;5069542;28;20484;-61
2024/03/05 08:53:31;;;;;;;27.05;11.20;;;;;;;;;;5068746;28;20068;-58
2024/03/05 08:55:59;;;;;;;23.02;10.63;;;;;;;;;;5084930;28;20056;-59
2024/03/05 08:58:29;;;;;;;24.00;11.20;;;;;;;;;;5066332;28;20160;-60
2024/03/05 09:00:58;;;;;;;24.02;11.20;;;;;;;;;;5063913;28;20401;-59
2024/03/05 09:03:26;;;;;;;25.13;10.90;;;;;;;;;;5073374;28;20386;-58
2024/03/05 09:05:55;;;;;;;24.48;10.48;;;;;;;;;;5077537;28;20405;-59
2024/03/05 09:08:23;;;;;;;25.63;10.75;;;;;;;;;;5075145;28;20048;-60
2024/03/05 09:10:51;;;;;;;25.35;11.15;;;;;;;;;;5072757;28;20056;-60
2024/03/05 09:13:20;;;;;;;27.42;11.57;;;;;;;;;;5078588;28;20444;-61
2024/03/05 09:15:53;;;;;;;24.52;11.98;;;;;;;;;;5069190;28;20052;-59
2024/03/05 09:18:21;;;;;;;24.40;10.52;;;;;;;;;;5067650;28;20036;-63
2024/03/05 09:20:50;;;;;;;22.10;10.25;;;;;;;;;;5064849;28;20049;-59
2024/03/05 09:23:19;;;;;;;24.05;10.52;;;;;;;;;;5068126;28;20090;-59
2024/03/05 09:25:48;;;;;;;23.55;10.55;;;;;;;;;;5068736;28;20539;-61
2024/03/05 09:28:16;;;;;;;20.65;9.82;;;;;;;;;;5068991;28;20084;-60
2024/03/05 09:30:45;;;;;;;21.60;9.02;;;;;;;;;;5065576;28;20174;-59
2024/03/05 09:33:15;;;;;;;25.15;9.75;;;;;;;;;;5067504;28;20098;-60
2024/03/05 09:35:44;;;;;;;23.42;10.10;;;;;;;;;;5069128;28;20547;-60
2024/03/05 09:38:16;;;;;;;18.85;8.77;;;;;;;;;;5067669;28;20044;-61
2024/03/05 09:40:44;;;;;;;16.48;7.70;;;;;;;;;;5068879;28;20060;-61
2024/03/05 09:43:14;;;;;;;14.45;6.95;;;;;;;;;;5069561;28;20089;-60
2024/03/05 09:45:43;;;;;;;14.52;6.47;;;;;;;;;;5063073;28;20497;-61
2024/03/05 09:48:11;;;;;;;14.40;7.13;;;;;;;;;;5067324;28;20041;-63
2024/03/05 09:50:42;;;;;;;16.02;7.35;;;;;;;;;;5062255;28;20064;-61
2024/03/05 09:53:12;;;;;;;12.13;6.47;;;;;;;;;;5059352;28;20053;-58
2024/03/05 09:55:40;;;;;;;13.82;5.40;;;;;;;;;;5069201;28;20048;-59
2024/03/05 09:58:10;;;;;;;13.43;5.35;;;;;;;;;;5059099;28;20048;-60
2024/03/05 10:00:39;;;;;;;10.55;5.45;;;;;;;;;;5063269;28;20037;-62
2024/03/05 10:03:08;;;;;;;11.38;5.45;;;;;;;;;;5066331;28;20140;-60
2024/03/05 10:05:37;;;;;;;9.63;5.03;;;;;;;;;;5067676;28;20048;-66
2024/03/05 10:08:11;;;;;;;10.98;5.30;;;;;;;;;;5067723;28;20056;-59
2024/03/05 10:10:40;;;;;;;10.95;5.18;;;;;;;;;;5065363;28;20045;-65
2024/03/05 10:13:08;;;;;;;8.32;4.43;;;;;;;;;;5068149;28;20075;-60
2024/03/05 10:15:42;;;;;;;9.27;4.75;;;;;;;;;;5065008;28;20394;-59
2024/03/05 10:18:11;;;;;;;10.73;4.85;;;;;;;;;;5060556;28;20099;-59
2024/03/05 10:20:40;;;;;;;13.15;4.85;;;;;;;;;;5067346;28;20049;-60
2024/03/05 10:23:10;;;;;;;10.02;5.30;;;;;;;;;;5064589;28;20044;-61
2024/03/05 10:25:39;;;;;;;11.73;4.97;;;;;;;;;;5065390;28;20207;-60
2024/03/05 10:28:09;;;;;;;9.02;4.47;;;;;;;;;;5066344;28;20367;-59
2024/03/05 10:30:42;;;;;;;8.82;4.78;;;;;;;;;;5064654;28;20048;-58
2024/03/05 10:33:12;;;;;;;10.60;4.40;;;;;;;;;;5067518;28;20052;-59
2024/03/05 10:35:41;;;;;;;10.73;5.35;;;;;;;;;;5067976;28;20057;-60
2024/03/05 10:38:14;;;;;;;8.20;4.20;;;;;;;;;;5067908;28;20095;-61
2024/03/05 10:40:44;;;;;;;10.90;4.55;;;;;;;;;;5041545;28;20101;-59
2024/03/05 10:43:18;;;;;;;9.57;4.75;;;;;;;;;;5047017;28;20047;-62
2024/03/05 10:45:47;;;;;;;7.93;4.35;;;;;;;;;;5045928;28;20055;-62
2024/03/05 10:48:18;;;;;;;7.82;4.07;;;;;;;;;;5035476;28;20561;-61
2024/03/05 10:50:48;;;;;;;9.02;4.43;;;;;;;;;;5066474;28;20059;-61
2024/03/05 10:53:20;;;;;;;8.95;4.03;;;;;;;;;;5066670;28;20102;-59
2024/03/05 10:55:49;;;;;;;6.97;3.67;;;;;;;;;;5067915;28;20040;-59
2024/03/05 10:58:44;;;;;;;7.53;3.97;;;;;;;;;;5066953;28;20044;-60
2024/03/05 11:01:12;;;;;;;7.03;3.83;;;;;;;;;;5065502;28;20036;-60
2024/03/05 11:03:41;;;;;;;8.65;4.55;;;;;;;;;;5064905;28;20057;-59
2024/03/05 11:06:10;;;;;;;10.93;4.65;;;;;;;;;;5062688;28;20127;-61
2024/03/05 11:08:42;;;;;;;7.80;4.22;;;;;;;;;;5065890;28;20574;-61
2024/03/05 11:11:13;;;;;;;6.90;4.30;;;;;;;;;;5066792;28;20055;-62
2024/03/05 11:13:42;;;;;;;10.35;5.00;;;;;;;;;;5062421;28;20414;-59
2024/03/05 11:16:10;;;;;;;8.70;4.65;;;;;;;;;;5072943;28;20496;-60
2024/03/05 11:18:39;;;;;;;8.45;4.50;;;;;;;;;;5066806;28;20074;-61
2024/03/05 11:21:08;;;;;;;7.25;4.35;;;;;;;;;;5071994;28;20044;-59
2024/03/05 11:23:42;;;;;;;6.72;3.97;;;;;;;;;;5063789;28;20297;-60
2024/03/05 11:26:20;;;;;;;6.63;3.90;;;;;;;;;;5065558;28;20789;-63
2024/03/05 11:28:48;;;;;;;9.35;4.60;;;;;;;;;;5063468;28;20203;-59
2024/03/05 11:31:17;;;;;;;7.25;4.07;;;;;;;;;;5064044;28;20102;-62
2024/03/05 11:33:52;;;;;;;10.32;5.22;;;;;;;;;;5068325;28;20417;-59
2024/03/05 11:36:21;;;;;;;7.97;4.35;;;;;;;;;;5064411;28;20527;-60
2024/03/05 11:39:03;;;;;;;9.85;4.72;;;;;;;;;;5070189;28;20089;-58
2024/03/05 11:41:34;;;;;;;9.43;4.97;;;;;;;;;;5069761;28;20102;-59
2024/03/05 11:44:03;;;;;;;8.52;5.05;;;;;;;;;;5063853;28;20568;-60
2024/03/05 11:46:41;;;;;;;10.52;5.10;;;;;;;;;;5064276;28;20048;-63
2024/03/05 11:49:10;;;;;;;12.10;6.13;;;;;;;;;;5063521;28;20107;-59
2024/03/05 11:51:40;;;;;;;11.63;5.95;;;;;;;;;;5045303;28;20045;-59
2024/03/05 11:54:09;;;;;;;10.10;5.15;;;;;;;;;;5055325;28;20055;-60
2024/03/05 11:56:40;;;;;;;11.65;6.03;;;;;;;;;;5055206;28;20044;-60
2024/03/05 11:59:09;;;;;;;13.18;5.88;;;;;;;;;;5053460;28;20053;-62
2024/03/05 12:01:37;;;;;;;11.48;6.18;;;;;;;;;;5067315;28;20113;-61
2024/03/05 12:04:07;;;;;;;9.95;5.40;;;;;;;;;;5075665;28;20132;-61
2024/03/05 12:06:36;;;;;;;8.75;4.90;;;;;;;;;;5071117;28;20044;-63
2024/03/05 12:09:10;;;;;;;9.15;5.10;;;;;;;;;;5075545;28;20059;-63
2024/03/05 12:11:40;;;;;;;11.25;5.50;;;;;;;;;;5074786;28;20287;-63
2024/03/05 12:14:09;;;;;;;8.73;5.07;;;;;;;;;;5076498;28;20057;-61
2024/03/05 12:16:38;;;;;;;9.57;5.05;;;;;;;;;;5065653;28;20060;-62
2024/03/05 12:19:07;;;;;;;7.63;4.57;;;;;;;;;;5081076;28;20481;-63
2024/03/05 12:21:36;;;;;;;9.70;4.93;;;;;;;;;;5067936;28;21458;-63
2024/03/05 12:24:06;;;;;;;9.88;5.57;;;;;;;;;;5070012;28;20126;-61
2024/03/05 12:26:35;;;;;;;13.05;6.57;;;;;;;;;;5066413;28;20041;-62
2024/03/05 12:29:05;;;;;;;10.93;5.10;;;;;;;;;;5069756;28;20064;-65
2024/03/05 12:31:33;;;;;;;12.70;6.07;;;;;;;;;;5065258;28;20466;-63
2024/03/05 12:34:02;;;;;;;8.70;5.20;;;;;;;;;;5068170;28;20064;-63
2024/03/05 12:36:31;;;;;;;10.15;5.07;;;;;;;;;;5067373;28;20468;-62
2024/03/05 12:38:59;;;;;;;10.85;5.40;;;;;;;;;;5068002;28;20379;-63
2024/03/05 12:41:28;;;;;;;7.93;5.03;;;;;;;;;;5070848;28;20461;-62
2024/03/05 12:43:56;;;;;;;9.32;5.40;;;;;;;;;;5067698;28;20113;-64
2024/03/05 12:46:26;;;;;;;10.82;5.82;;;;;;;;;;5069262;28;20128;-63
2024/03/05 12:48:58;;;;;;;11.35;5.63;;;;;;;;;;5061455;28;20052;-62
2024/03/05 12:51:27;;;;;;;11.38;6.75;;;;;;;;;;5048082;28;20053;-63
2024/03/05 12:54:01;;;;;;;10.20;6.05;;;;;;;;;;5047945;28;20057;-62
2024/03/05 12:56:42;;;;;;;12.73;5.95;;;;;;;;;;5047247;28;20462;-62
2024/03/05 12:59:11;;;;;;;11.50;5.57;;;;;;;;;;5057394;28;20558;-63
2024/03/05 13:01:41;;;;;;;9.35;5.22;;;;;;;;;;5066967;28;20350;-62
2024/03/05 13:04:09;;;;;;;10.30;6.07;;;;;;;;;;5071342;28;20051;-61
2024/03/05 13:06:37;;;;;;;10.00;5.38;;;;;;;;;;5065815;28;20044;-60
2024/03/05 13:09:07;;;;;;;11.45;5.68;;;;;;;;;;5066218;28;20079;-61
2024/03/05 13:11:35;;;;;;;11.93;6.05;;;;;;;;;;5066644;28;20299;-59
2024/03/05 13:14:10;;;;;;;9.00;5.72;;;;;;;;;;5065557;28;20040;-58
2024/03/05 13:16:38;;;;;;;11.95;6.50;;;;;;;;;;5069536;28;20055;-64
2024/03/05 13:19:10;;;;;;;13.35;6.07;;;;;;;;;;5066633;28;20071;-61
2024/03/05 13:21:38;;;;;;;11.23;6.25;;;;;;;;;;5067591;28;20486;-58
2024/03/05 13:24:09;;;;;;;13.18;6.43;;;;;;;;;;5068153;28;20049;-60
2024/03/05 13:26:39;;;;;;;10.32;5.93;;;;;;;;;;5057140;28;20072;-58
2024/03/05 13:29:08;;;;;;;13.50;6.38;;;;;;;;;;5060043;28;20048;-58
2024/03/05 13:31:37;;;;;;;10.27;6.35;;;;;;;;;;5067440;28;20047;-60
2024/03/05 13:34:08;;;;;;;11.23;6.68;;;;;;;;;;5068956;28;20449;-61
2024/03/05 13:36:39;;;;;;;10.93;6.78;;;;;;;;;;5069106;28;20049;-59
2024/03/05 13:39:09;;;;;;;11.98;6.32;;;;;;;;;;5067983;28;20075;-59
2024/03/05 13:41:38;;;;;;;11.50;6.53;;;;;;;;;;5066859;28;20475;-59
2024/03/05 13:44:06;;;;;;;11.73;6.95;;;;;;;;;;5059536;28;20045;-62
2024/03/05 13:46:37;;;;;;;11.68;6.80;;;;;;;;;;5068385;28;20060;-61
2024/03/05 13:49:06;;;;;;;9.98;5.78;;;;;;;;;;5068400;28;20045;-61
2024/03/05 13:51:35;;;;;;;10.25;6.22;;;;;;;;;;5067838;28;20131;-59
2024/03/05 13:54:06;;;;;;;12.52;6.65;;;;;;;;;;5066946;28;20044;-60
2024/03/05 13:56:34;;;;;;;11.07;6.45;;;;;;;;;;5067574;28;20048;-59
2024/03/05 13:59:04;;;;;;;10.85;6.53;;;;;;;;;;5060545;28;20056;-59
2024/03/05 14:01:33;;;;;;;8.70;5.22;;;;;;;;;;5070317;28;20120;-61
2024/03/05 14:04:02;;;;;;;10.15;5.70;;;;;;;;;;5065168;28;20083;-60
2024/03/05 14:06:31;;;;;;;9.35;5.65;;;;;;;;;;5069526;28;20044;-60
2024/03/05 14:09:00;;;;;;;10.30;5.90;;;;;;;;;;5068496;28;20044;-60
2024/03/05 14:11:30;;;;;;;10.88;6.18;;;;;;;;;;5068790;28;20051;-59
2024/03/05 14:14:00;;;;;;;10.25;5.95;;;;;;;;;;5071544;28;20195;-61
2024/03/05 14:16:29;;;;;;;10.73;5.95;;;;;;;;;;5079961;28;20485;-59
2024/03/05 14:18:58;;;;;;;11.07;6.00;;;;;;;;;;5072247;28;20051;-58
2024/03/05 14:21:30;;;;;;;9.85;5.28;;;;;;;;;;5068921;28;20499;-62
2024/03/05 14:23:59;;;;;;;9.25;5.35;;;;;;;;;;5071737;28;20059;-64
2024/03/05 14:26:27;;;;;;;11.38;6.38;;;;;;;;;;5068626;28;20493;-58
2024/03/05 14:29:00;;;;;;;9.23;5.15;;;;;;;;;;5062926;28;20417;-59
2024/03/05 14:31:29;;;;;;;9.50;5.63;;;;;;;;;;5072661;28;20048;-60
2024/03/05 14:33:57;;;;;;;8.63;5.25;;;;;;;;;;5074444;28;20087;-61
2024/03/05 14:36:26;;;;;;;10.57;5.40;;;;;;;;;;5062422;28;20166;-60
2024/03/05 14:38:54;;;;;;;10.95;5.95;;;;;;;;;;5070803;28;20076;-59
2024/03/05 14:41:23;;;;;;;10.85;5.65;;;;;;;;;;5073545;28;20110;-59
2024/03/05 14:43:51;;;;;;;8.55;4.75;;;;;;;;;;5071581;28;20040;-60
2024/03/05 14:46:22;;;;;;;6.70;4.38;;;;;;;;;;5069004;28;20059;-59